sensor_id;sensor_type;location;lat;lon;timestamp;pressure;altitude;pressure_sealevel;temperature;humidity
49835;BME280;35729;52.090;13.162;2023-04-01T00:01:17;99148.16;;;8.10;100.00
49835;BME280;35729;52.090;13.162;2023-04-01T00:03:45;99139.41;;;8.11;100.00
49835;BME280;35729;52.090;13.162;2023-04-01T00:06:16;99137.66;;;8.11;100.00
49835;BME280;35729;52.090;13.162;2023-04-01T00:08:44;99137.66;;;8.11;100.00
49835;BME280;35729;52.090;13.162;2023-04-01T00:11:13;99134.13;;;8.12;100.00
49835;BME280;35729;52.090;13.162;2023-04-01T00:13:42;99136.81;;;8.11;100.00
49835;BME280;35729;52.090;13.162;2023-04-01T00:16:12;99142.91;;;8.11;100.00
49835;BME280;35729;52.090;13.162;2023-04-01T00:18:43;99139.41;;;8.11;100.00
49835;BME280;35729;52.090;13.162;2023-04-01T00:21:13;99132.47;;;8.10;100.00
49835;BME280;35729;52.090;13.162;2023-04-01T00:23:41;99141.13;;;8.12;100.00
49835;BME280;35729;52.090;13.162;2023-04-01T00:26:10;99134.19;;;8.11;100.00
49835;BME280;35729;52.090;13.162;2023-04-01T00:28:39;99135.97;;;8.10;100.00
49835;BME280;35729;52.090;13.162;2023-04-01T00:31:09;99134.19;;;8.11;100.00
49835;BME280;35729;52.090;13.162;2023-04-01T00:33:38;99124.63;;;8.11;100.00
49835;BME280;35729;52.090;13.162;2023-04-01T00:36:11;99129.84;;;8.11;100.00
49835;BME280;35729;52.090;13.162;2023-04-01T00:38:41;99137.59;;;8.13;100.00
49835;BME280;35729;52.090;13.162;2023-04-01T00:41:10;99128.00;;;8.13;100.00
49835;BME280;35729;52.090;13.162;2023-04-01T00:43:40;99131.47;;;8.14;100.00
49835;BME280;35729;52.090;13.162;2023-04-01T00:46:09;99125.31;;;8.15;100.00
49835;BME280;35729;52.090;13.162;2023-04-01T00:48:39;99128.81;;;8.15;100.00
49835;BME280;35729;52.090;13.162;2023-04-01T00:51:15;99125.31;;;8.15;100.00
49835;BME280;35729;52.090;13.162;2023-04-01T00:53:48;99127.94;;;8.15;100.00
49835;BME280;35729;52.090;13.162;2023-04-01T00:56:21;99136.63;;;8.15;100.00
49835;BME280;35729;52.090;13.162;2023-04-01T00:58:53;99140.06;;;8.18;100.00
49835;BME280;35729;52.090;13.162;2023-04-01T01:01:24;99133.97;;;8.17;100.00
49835;BME280;35729;52.090;13.162;2023-04-01T01:03:53;99133.97;;;8.17;100.00
49835;BME280;35729;52.090;13.162;2023-04-01T01:06:35;99134.84;;;8.18;100.00
49835;BME280;35729;52.090;13.162;2023-04-01T01:09:14;99135.66;;;8.18;100.00
49835;BME280;35729;52.090;13.162;2023-04-01T01:11:50;99141.81;;;8.17;100.00
49835;BME280;35729;52.090;13.162;2023-04-01T01:14:33;99140.97;;;8.17;100.00
49835;BME280;35729;52.090;13.162;2023-04-01T01:17:10;99133.91;;;8.19;100.00
49835;BME280;35729;52.090;13.162;2023-04-01T01:23:01;99139.03;;;8.22;100.00
49835;BME280;35729;52.090;13.162;2023-04-01T01:25:41;99131.19;;;8.22;100.00
49835;BME280;35729;52.090;13.162;2023-04-01T01:28:29;99132.94;;;8.21;100.00
49835;BME280;35729;52.090;13.162;2023-04-01T01:31:12;99137.25;;;8.22;100.00
49835;BME280;35729;52.090;13.162;2023-04-01T01:33:51;99137.25;;;8.22;100.00
49835;BME280;35729;52.090;13.162;2023-04-01T01:36:28;99137.25;;;8.22;100.00
49835;BME280;35729;52.090;13.162;2023-04-01T01:39:00;99133.88;;;8.20;100.00
49835;BME280;35729;52.090;13.162;2023-04-01T01:41:30;99128.63;;;8.20;100.00
49835;BME280;35729;52.090;13.162;2023-04-01T01:44:01;99132.94;;;8.21;100.00
49835;BME280;35729;52.090;13.162;2023-04-01T01:46:31;99132.16;;;8.19;100.00
49835;BME280;35729;52.090;13.162;2023-04-01T01:49:00;99135.53;;;8.21;100.00
49835;BME280;35729;52.090;13.162;2023-04-01T01:51:32;99139.09;;;8.20;100.00
49835;BME280;35729;52.090;13.162;2023-04-01T01:54:02;99137.38;;;8.19;100.00
49835;BME280;35729;52.090;13.162;2023-04-01T01:56:31;99135.59;;;8.20;100.00
49835;BME280;35729;52.090;13.162;2023-04-01T01:59:03;99140.97;;;8.17;100.00
49835;BME280;35729;52.090;13.162;2023-04-01T02:01:37;99144.41;;;8.17;100.00
49835;BME280;35729;52.090;13.162;2023-04-01T02:04:08;99146.19;;;8.17;100.00
49835;BME280;35729;52.090;13.162;2023-04-01T02:06:44;99139.19;;;8.17;100.00
49835;BME280;35729;52.090;13.162;2023-04-01T02:09:15;99146.13;;;8.18;100.00
49835;BME280;35729;52.090;13.162;2023-04-01T02:11:51;99147.91;;;8.18;100.00
49835;BME280;35729;52.090;13.162;2023-04-01T02:14:22;99147.03;;;8.17;100.00
49835;BME280;35729;52.090;13.162;2023-04-01T02:16:56;99145.28;;;8.18;100.00
49835;BME280;35729;52.090;13.162;2023-04-01T02:19:36;99154.03;;;8.17;100.00
49835;BME280;35729;52.090;13.162;2023-04-01T02:22:11;99144.41;;;8.17;100.00
49835;BME280;35729;52.090;13.162;2023-04-01T02:24:42;99144.41;;;8.17;100.00
49835;BME280;35729;52.090;13.162;2023-04-01T02:27:12;99148.72;;;8.18;100.00
49835;BME280;35729;52.090;13.162;2023-04-01T02:29:40;99145.28;;;8.18;100.00
49835;BME280;35729;52.090;13.162;2023-04-01T02:32:09;99148.72;;;8.18;100.00
49835;BME280;35729;52.090;13.162;2023-04-01T02:34:38;99156.56;;;8.18;100.00
49835;BME280;35729;52.090;13.162;2023-04-01T02:37:10;99149.63;;;8.17;100.00
49835;BME280;35729;52.090;13.162;2023-04-01T02:39:39;99164.47;;;8.17;100.00
49835;BME280;35729;52.090;13.162;2023-04-01T02:42:08;99159.25;;;8.17;100.00
49835;BME280;35729;52.090;13.162;2023-04-01T02:44:37;99160.09;;;8.17;100.00
49835;BME280;35729;52.090;13.162;2023-04-01T02:47:06;99163.56;;;8.18;100.00
49835;BME280;35729;52.090;13.162;2023-04-01T02:49:34;99165.31;;;8.17;100.00
49835;BME280;35729;52.090;13.162;2023-04-01T02:52:03;99168.81;;;8.16;100.00
49835;BME280;35729;52.090;13.162;2023-04-01T02:54:35;99165.38;;;8.15;100.00
49835;BME280;35729;52.090;13.162;2023-04-01T02:57:03;99176.63;;;8.18;100.00
49835;BME280;35729;52.090;13.162;2023-04-01T02:59:32;99177.53;;;8.17;100.00
49835;BME280;35729;52.090;13.162;2023-04-01T03:02:00;99176.66;;;8.16;100.00
49835;BME280;35729;52.090;13.162;2023-04-01T03:04:29;99179.28;;;8.16;100.00
49835;BME280;35729;52.090;13.162;2023-04-01T03:06:57;99176.63;;;8.18;100.00
49835;BME280;35729;52.090;13.162;2023-04-01T03:09:26;99179.34;;;8.14;100.00
49835;BME280;35729;52.090;13.162;2023-04-01T03:11:58;99180.16;;;8.17;100.00
49835;BME280;35729;52.090;13.162;2023-04-01T03:14:26;99187.13;;;8.16;100.00
49835;BME280;35729;52.090;13.162;2023-04-01T03:16:55;99190.59;;;8.17;100.00
49835;BME280;35729;52.090;13.162;2023-04-01T03:19:23;99184.50;;;8.16;100.00
49835;BME280;35729;52.090;13.162;2023-04-01T03:21:52;99185.38;;;8.17;100.00
49835;BME280;35729;52.090;13.162;2023-04-01T03:24:20;99184.50;;;8.16;100.00
49835;BME280;35729;52.090;13.162;2023-04-01T03:26:49;99184.50;;;8.16;100.00
49835;BME280;35729;52.090;13.162;2023-04-01T03:29:20;99189.78;;;8.14;100.00
49835;BME280;35729;52.090;13.162;2023-04-01T03:31:48;99194.13;;;8.15;100.00
49835;BME280;35729;52.090;13.162;2023-04-01T03:34:17;99187.19;;;8.14;100.00
49835;BME280;35729;52.090;13.162;2023-04-01T03:36:45;99185.47;;;8.13;100.00
49835;BME280;35729;52.090;13.162;2023-04-01T03:39:14;99191.59;;;8.12;100.00
49835;BME280;35729;52.090;13.162;2023-04-01T03:41:44;99189.84;;;8.13;100.00
49835;BME280;35729;52.090;13.162;2023-04-01T03:44:12;99197.75;;;8.11;100.00
49835;BME280;35729;52.090;13.162;2023-04-01T03:46:44;99195.19;;;8.10;100.00
49835;BME280;35729;52.090;13.162;2023-04-01T03:49:12;99197.78;;;8.10;100.00
49835;BME280;35729;52.090;13.162;2023-04-01T03:51:42;99200.41;;;8.10;100.00
49835;BME280;35729;52.090;13.162;2023-04-01T03:54:11;99201.34;;;8.09;100.00
49835;BME280;35729;52.090;13.162;2023-04-01T03:56:39;99201.38;;;8.07;100.00
49835;BME280;35729;52.090;13.162;2023-04-01T03:59:08;99203.94;;;8.09;100.00
49835;BME280;35729;52.090;13.162;2023-04-01T04:01:37;99203.06;;;8.08;100.00
49835;BME280;35729;52.090;13.162;2023-04-01T04:04:10;99207.47;;;8.08;100.00
49835;BME280;35729;52.090;13.162;2023-04-01T04:06:40;99200.53;;;8.07;100.00
49835;BME280;35729;52.090;13.162;2023-04-01T04:09:08;99203.13;;;8.07;100.00
49835;BME280;35729;52.090;13.162;2023-04-01T04:11:37;99209.25;;;8.06;100.00
49835;BME280;35729;52.090;13.162;2023-04-01T04:14:05;99214.47;;;8.06;100.00
49835;BME280;35729;52.090;13.162;2023-04-01T04:16:35;99218.00;;;8.05;100.00
49835;BME280;35729;52.090;13.162;2023-04-01T04:19:04;99215.44;;;8.03;100.00
49835;BME280;35729;52.090;13.162;2023-04-01T04:21:36;99224.19;;;8.02;100.00
49835;BME280;35729;52.090;13.162;2023-04-01T04:24:05;99224.19;;;8.02;100.00
49835;BME280;35729;52.090;13.162;2023-04-01T04:26:33;99229.47;;;8.01;100.00
49835;BME280;35729;52.090;13.162;2023-04-01T04:29:02;99226.84;;;8.01;100.00
49835;BME280;35729;52.090;13.162;2023-04-01T04:31:31;99230.38;;;7.99;100.00
49835;BME280;35729;52.090;13.162;2023-04-01T04:34:00;99233.88;;;7.98;100.00
49835;BME280;35729;52.090;13.162;2023-04-01T04:36:29;99229.53;;;7.99;100.00
49835;BME280;35729;52.090;13.162;2023-04-01T04:39:00;99232.97;;;7.99;100.00
49835;BME280;35729;52.090;13.162;2023-04-01T04:41:28;99238.22;;;7.99;100.00
49835;BME280;35729;52.090;13.162;2023-04-01T04:43:57;99242.53;;;8.01;100.00
49835;BME280;35729;52.090;13.162;2023-04-01T04:46:26;99236.47;;;8.00;100.00
49835;BME280;35729;52.090;13.162;2023-04-01T04:48:54;99241.69;;;8.00;100.00
49835;BME280;35729;52.090;13.162;2023-04-01T04:51:23;99239.97;;;7.99;100.00
49835;BME280;35729;52.090;13.162;2023-04-01T04:53:52;99239.09;;;7.98;100.00
49835;BME280;35729;52.090;13.162;2023-04-01T04:56:23;99242.53;;;8.01;100.00
49835;BME280;35729;52.090;13.162;2023-04-01T04:58:52;99239.06;;;8.00;100.00
49835;BME280;35729;52.090;13.162;2023-04-01T05:01:20;99237.31;;;8.01;100.00
49835;BME280;35729;52.090;13.162;2023-04-01T05:03:49;99244.25;;;8.02;100.00
49835;BME280;35729;52.090;13.162;2023-04-01T05:06:18;99239.00;;;8.02;100.00
49835;BME280;35729;52.090;13.162;2023-04-01T05:08:47;99246.78;;;8.03;100.00
49835;BME280;35729;52.090;13.162;2023-04-01T05:11:18;99247.63;;;8.04;100.00
49835;BME280;35729;52.090;13.162;2023-04-01T05:13:49;99246.69;;;8.06;100.00
49835;BME280;35729;52.090;13.162;2023-04-01T05:16:19;99248.34;;;8.09;100.00
49835;BME280;35729;52.090;13.162;2023-04-01T05:18:48;99245.69;;;8.10;100.00
49835;BME280;35729;52.090;13.162;2023-04-01T05:21:16;99251.69;;;8.12;100.00
49835;BME280;35729;52.090;13.162;2023-04-01T05:23:45;99250.72;;;8.15;100.00
49835;BME280;35729;52.090;13.162;2023-04-01T05:26:14;99249.78;;;8.18;100.00
49835;BME280;35729;52.090;13.162;2023-04-01T05:28:42;99250.63;;;8.18;100.00
49835;BME280;35729;52.090;13.162;2023-04-01T05:31:14;99255.72;;;8.21;100.00
49835;BME280;35729;52.090;13.162;2023-04-01T05:33:42;99259.16;;;8.23;100.00
49835;BME280;35729;52.090;13.162;2023-04-01T05:36:14;99259.16;;;8.23;100.00
49835;BME280;35729;52.090;13.162;2023-04-01T05:38:43;99254.72;;;8.25;100.00
49835;BME280;35729;52.090;13.162;2023-04-01T05:41:13;99256.41;;;8.26;100.00
49835;BME280;35729;52.090;13.162;2023-04-01T05:43:42;99260.66;;;8.29;100.00
49835;BME280;35729;52.090;13.162;2023-04-01T05:46:13;99264.16;;;8.29;100.00
49835;BME280;35729;52.090;13.162;2023-04-01T05:48:42;99271.94;;;8.31;100.00
49835;BME280;35729;52.090;13.162;2023-04-01T05:51:13;99275.41;;;8.31;100.00
49835;BME280;35729;52.090;13.162;2023-04-01T05:53:41;99278.03;;;8.31;100.00
49835;BME280;35729;52.090;13.162;2023-04-01T05:56:10;99275.41;;;8.31;100.00
49835;BME280;35729;52.090;13.162;2023-04-01T05:58:39;99277.09;;;8.32;100.00
49835;BME280;35729;52.090;13.162;2023-04-01T06:01:09;99287.50;;;8.34;100.00
49835;BME280;35729;52.090;13.162;2023-04-01T06:03:40;99288.34;;;8.35;100.00
49835;BME280;35729;52.090;13.162;2023-04-01T06:06:13;99287.47;;;8.36;100.00
49835;BME280;35729;52.090;13.162;2023-04-01T06:08:42;99290.97;;;8.35;100.00
49835;BME280;35729;52.090;13.162;2023-04-01T06:11:22;99292.69;;;8.36;100.00
49835;BME280;35729;52.090;13.162;2023-04-01T06:14:04;99298.75;;;8.36;100.00
49835;BME280;35729;52.090;13.162;2023-04-01T06:16:49;99297.09;;;8.34;100.00
49835;BME280;35729;52.090;13.162;2023-04-01T06:19:32;99303.19;;;8.34;100.00
49835;BME280;35729;52.090;13.162;2023-04-01T06:22:38;99299.66;;;8.35;100.00
49835;BME280;35729;52.090;13.162;2023-04-01T06:25:19;99295.28;;;8.36;100.00
49835;BME280;35729;52.090;13.162;2023-04-01T06:28:05;99303.06;;;8.37;100.00
49835;BME280;35729;52.090;13.162;2023-04-01T06:30:41;99302.09;;;8.40;100.00
49835;BME280;35729;52.090;13.162;2023-04-01T06:33:35;99305.53;;;8.42;100.00
49835;BME280;35729;52.090;13.162;2023-04-01T06:36:20;99308.91;;;8.44;100.00
49835;BME280;35729;52.090;13.162;2023-04-01T06:39:13;99308.81;;;8.48;100.00
49835;BME280;35729;52.090;13.162;2023-04-01T06:42:10;99307.78;;;8.53;100.00
49835;BME280;35729;52.090;13.162;2023-04-01T06:44:49;99313.66;;;8.59;100.00
49835;BME280;35729;52.090;13.162;2023-04-01T06:47:33;99308.22;;;8.64;100.00
49835;BME280;35729;52.090;13.162;2023-04-01T06:50:13;99309.78;;;8.70;100.00
49835;BME280;35729;52.090;13.162;2023-04-01T06:52:58;99314.78;;;8.76;100.00
49835;BME280;35729;52.090;13.162;2023-04-01T06:55:34;99319.91;;;8.79;100.00
49835;BME280;35729;52.090;13.162;2023-04-01T06:58:11;99311.94;;;8.82;100.00
49835;BME280;35729;52.090;13.162;2023-04-01T07:00:43;99310.97;;;8.85;100.00
49835;BME280;35729;52.090;13.162;2023-04-01T07:03:20;99316.91;;;8.88;100.00
49835;BME280;35729;52.090;13.162;2023-04-01T07:05:49;99317.63;;;8.93;100.00
49835;BME280;35729;52.090;13.162;2023-04-01T07:08:23;99312.34;;;8.95;100.00
49835;BME280;35729;52.090;13.162;2023-04-01T07:10:56;99323.41;;;9.02;100.00
49835;BME280;35729;52.090;13.162;2023-04-01T07:13:29;99327.59;;;9.06;100.00
49835;BME280;35729;52.090;13.162;2023-04-01T07:16:05;99329.22;;;9.10;100.00
49835;BME280;35729;52.090;13.162;2023-04-01T07:18:40;99328.19;;;9.14;100.00
49835;BME280;35729;52.090;13.162;2023-04-01T07:21:19;99322.88;;;9.16;100.00
49835;BME280;35729;52.090;13.162;2023-04-01T07:23:52;99327.06;;;9.20;100.00
49835;BME280;35729;52.090;13.162;2023-04-01T07:26:23;99318.31;;;9.21;100.00
49835;BME280;35729;52.090;13.162;2023-04-01T07:28:53;99330.44;;;9.23;100.00
49835;BME280;35729;52.090;13.162;2023-04-01T07:31:52;99337.44;;;9.23;100.00
49835;BME280;35729;52.090;13.162;2023-04-01T07:34:26;99328.47;;;9.28;100.00
49835;BME280;35729;52.090;13.162;2023-04-01T07:36:59;99331.78;;;9.34;100.00
49835;BME280;35729;52.090;13.162;2023-04-01T07:39:39;99328.13;;;9.38;100.00
49835;BME280;35729;52.090;13.162;2023-04-01T07:42:16;99328.91;;;9.40;100.00
49835;BME280;35729;52.090;13.162;2023-04-01T07:44:56;99333.97;;;9.44;100.00
49835;BME280;35729;52.090;13.162;2023-04-01T07:47:38;99332.25;;;9.43;100.00
49835;BME280;35729;52.090;13.162;2023-04-01T07:50:17;99332.94;;;9.49;100.00
49835;BME280;35729;52.090;13.162;2023-04-01T07:52:52;99336.41;;;9.49;100.00
49835;BME280;35729;52.090;13.162;2023-04-01T07:55:31;99336.41;;;9.49;100.00
49835;BME280;35729;52.090;13.162;2023-04-01T07:58:09;99341.59;;;9.51;100.00
49835;BME280;35729;52.090;13.162;2023-04-01T08:00:43;99343.22;;;9.53;100.00
49835;BME280;35729;52.090;13.162;2023-04-01T08:03:28;99350.91;;;9.58;100.00
49835;BME280;35729;52.090;13.162;2023-04-01T08:06:12;99349.06;;;9.60;100.00
49835;BME280;35729;52.090;13.162;2023-04-01T08:08:57;99355.03;;;9.64;100.00
49835;BME280;35729;52.090;13.162;2023-04-01T08:11:41;99357.59;;;9.65;100.00
49835;BME280;35729;52.090;13.162;2023-04-01T08:14:21;99361.91;;;9.66;100.00
49835;BME280;35729;52.090;13.162;2023-04-01T08:16:57;99362.75;;;9.67;100.00
49835;BME280;35729;52.090;13.162;2023-04-01T08:19:42;99360.09;;;9.68;100.00
49835;BME280;35729;52.090;13.162;2023-04-01T08:22:18;99357.34;;;9.71;100.00
49835;BME280;35729;52.090;13.162;2023-04-01T08:24:49;99366.75;;;9.77;100.00
49835;BME280;35729;52.090;13.162;2023-04-01T08:27:24;99363.13;;;9.80;100.00
49835;BME280;35729;52.090;13.162;2023-04-01T08:29:58;99368.31;;;9.81;100.00
49835;BME280;35729;52.090;13.162;2023-04-01T08:32:31;99370.75;;;9.86;100.00
49835;BME280;35729;52.090;13.162;2023-04-01T08:35:07;99364.53;;;9.88;100.00
49835;BME280;35729;52.090;13.162;2023-04-01T08:37:39;99366.22;;;9.89;100.00
49835;BME280;35729;52.090;13.162;2023-04-01T08:40:28;99375.72;;;9.92;100.00
49835;BME280;35729;52.090;13.162;2023-04-01T08:43:09;99366.91;;;9.94;100.00
49835;BME280;35729;52.090;13.162;2023-04-01T08:46:00;99369.31;;;9.99;100.00
49835;BME280;35729;52.090;13.162;2023-04-01T08:48:46;99372.47;;;10.07;100.00
49835;BME280;35729;52.090;13.162;2023-04-01T08:51:35;99370.38;;;10.16;100.00
49835;BME280;35729;52.090;13.162;2023-04-01T08:54:25;99370.78;;;10.27;100.00
49835;BME280;35729;52.090;13.162;2023-04-01T08:57:04;99374.72;;;10.37;100.00
49835;BME280;35729;52.090;13.162;2023-04-01T09:00:03;99376.06;;;10.48;100.00
49835;BME280;35729;52.090;13.162;2023-04-01T09:02:47;99380.91;;;10.57;100.00
49835;BME280;35729;52.090;13.162;2023-04-01T09:05:30;99374.59;;;10.61;100.00
49835;BME280;35729;52.090;13.162;2023-04-01T09:08:11;99372.63;;;10.66;100.00
49835;BME280;35729;52.090;13.162;2023-04-01T09:10:56;99374.97;;;10.72;100.00
49835;BME280;35729;52.090;13.162;2023-04-01T09:16:29;99376.22;;;10.84;100.00
49835;BME280;35729;52.090;13.162;2023-04-01T09:19:17;99378.84;;;10.84;100.00
49835;BME280;35729;52.090;13.162;2023-04-01T09:27:56;99386.94;;;10.59;100.00
49835;BME280;35729;52.090;13.162;2023-04-01T09:31:06;99382.88;;;10.52;100.00
49835;BME280;35729;52.090;13.162;2023-04-01T09:34:09;99384.94;;;10.45;100.00
49835;BME280;35729;52.090;13.162;2023-04-01T09:36:45;99386.16;;;10.36;100.00
49835;BME280;35729;52.090;13.162;2023-04-01T09:39:34;99394.88;;;10.37;100.00
49835;BME280;35729;52.090;13.162;2023-04-01T09:42:23;99388.88;;;10.33;100.00
49835;BME280;35729;52.090;13.162;2023-04-01T09:44:58;99388.78;;;10.36;100.00
49835;BME280;35729;52.090;13.162;2023-04-01T09:47:43;99392.25;;;10.37;100.00
49835;BME280;35729;52.090;13.162;2023-04-01T09:50:38;99391.25;;;10.39;100.00
49835;BME280;35729;52.090;13.162;2023-04-01T09:53:28;99394.53;;;10.45;100.00
49835;BME280;35729;52.090;13.162;2023-04-01T09:56:19;99395.13;;;10.51;100.00
49835;BME280;35729;52.090;13.162;2023-04-01T09:59:12;99396.56;;;10.58;100.00
49835;BME280;35729;52.090;13.162;2023-04-01T10:02:21;99397.16;;;10.65;100.00
49835;BME280;35729;52.090;13.162;2023-04-01T10:11:18;99406.00;;;10.83;100.00
49835;BME280;35729;52.090;13.162;2023-04-01T10:17:21;99410.25;;;10.86;100.00
49835;BME280;35729;52.090;13.162;2023-04-01T10:20:20;99408.63;;;10.83;100.00
49835;BME280;35729;52.090;13.162;2023-04-01T10:23:19;99412.28;;;10.79;100.00
49835;BME280;35729;52.090;13.162;2023-04-01T10:29:18;99419.84;;;10.66;100.00
49835;BME280;35729;52.090;13.162;2023-04-01T10:32:21;99421.72;;;10.63;99.83
49835;BME280;35729;52.090;13.162;2023-04-01T10:35:20;99414.94;;;10.58;100.00
49835;BME280;35729;52.090;13.162;2023-04-01T10:41:34;99424.66;;;10.56;100.00
49835;BME280;35729;52.090;13.162;2023-04-01T10:44:45;99424.69;;;10.55;100.00
49835;BME280;35729;52.090;13.162;2023-04-01T10:47:39;99423.94;;;10.53;100.00
49835;BME280;35729;52.090;13.162;2023-04-01T10:50:24;99424.03;;;10.50;100.00
49835;BME280;35729;52.090;13.162;2023-04-01T10:53:13;99425.91;;;10.48;100.00
49835;BME280;35729;52.090;13.162;2023-04-01T10:56:07;99425.16;;;10.44;100.00
49835;BME280;35729;52.090;13.162;2023-04-01T10:59:02;99429.59;;;10.42;100.00
49835;BME280;35729;52.090;13.162;2023-04-01T11:08:15;99429.59;;;10.42;100.00
49835;BME280;35729;52.090;13.162;2023-04-01T11:11:21;99430.44;;;10.42;100.00
49835;BME280;35729;52.090;13.162;2023-04-01T11:14:21;99421.66;;;10.43;100.00
49835;BME280;35729;52.090;13.162;2023-04-01T11:20:28;99426.59;;;10.51;100.00
49835;BME280;35729;52.090;13.162;2023-04-01T11:26:26;99430.41;;;10.65;100.00
49835;BME280;35729;52.090;13.162;2023-04-01T11:29:30;99427.44;;;10.72;100.00
49835;BME280;35729;52.090;13.162;2023-04-01T11:32:17;99424.56;;;10.79;100.00
49835;BME280;35729;52.090;13.162;2023-04-01T11:34:57;99432.09;;;10.86;100.00
49835;BME280;35729;52.090;13.162;2023-04-01T11:37:38;99433.59;;;10.92;100.00
49835;BME280;35729;52.090;13.162;2023-04-01T11:40:17;99429.91;;;10.96;100.00
49835;BME280;35729;52.090;13.162;2023-04-01T11:42:58;99441.78;;;11.05;100.00
49835;BME280;35729;52.090;13.162;2023-04-01T11:45:36;99439.00;;;11.08;100.00
49835;BME280;35729;52.090;13.162;2023-04-01T11:48:23;99441.50;;;11.11;100.00
49835;BME280;35729;52.090;13.162;2023-04-01T11:51:16;99446.47;;;11.17;100.00
49835;BME280;35729;52.090;13.162;2023-04-01T11:53:57;99443.63;;;11.22;100.00
49835;BME280;35729;52.090;13.162;2023-04-01T11:56:56;99456.47;;;11.28;100.00
49835;BME280;35729;52.090;13.162;2023-04-01T11:59:55;99457.13;;;11.33;100.00
49835;BME280;35729;52.090;13.162;2023-04-01T12:02:34;99459.72;;;11.35;100.00
49835;BME280;35729;52.090;13.162;2023-04-01T12:05:37;99462.09;;;11.39;100.00
49835;BME280;35729;52.090;13.162;2023-04-01T12:08:15;99466.38;;;11.42;100.00
49835;BME280;35729;52.090;13.162;2023-04-01T12:10:55;99472.47;;;11.43;100.00
49835;BME280;35729;52.090;13.162;2023-04-01T12:13:38;99470.63;;;11.45;100.00
49835;BME280;35729;52.090;13.162;2023-04-01T12:19:23;99485.75;;;11.39;100.00
49835;BME280;35729;52.090;13.162;2023-04-01T12:22:12;99486.09;;;11.32;100.00
49835;BME280;35729;52.090;13.162;2023-04-01T12:24:46;99493.16;;;11.30;100.00
49835;BME280;35729;52.090;13.162;2023-04-01T12:27:33;99490.53;;;11.30;100.00
49835;BME280;35729;52.090;13.162;2023-04-01T12:30:30;99487.91;;;11.30;100.00
49835;BME280;35729;52.090;13.162;2023-04-01T12:33:15;99494.88;;;11.31;100.00
49835;BME280;35729;52.090;13.162;2023-04-01T12:35:56;99494.88;;;11.31;100.00
49835;BME280;35729;52.090;13.162;2023-04-01T12:38:34;99497.50;;;11.31;100.00
49835;BME280;35729;52.090;13.162;2023-04-01T12:41:09;99495.78;;;11.30;100.00
49835;BME280;35729;52.090;13.162;2023-04-01T12:46:58;99496.78;;;11.27;100.00
49835;BME280;35729;52.090;13.162;2023-04-01T12:49:44;99495.09;;;11.26;100.00
49835;BME280;35729;52.090;13.162;2023-04-01T12:52:23;99496.09;;;11.23;100.00
49835;BME280;35729;52.090;13.162;2023-04-01T12:55:25;99498.84;;;11.20;100.00
49835;BME280;35729;52.090;13.162;2023-04-01T12:58:22;99510.47;;;11.15;100.00
49835;BME280;35729;52.090;13.162;2023-04-01T13:01:11;99516.84;;;11.09;100.00
49835;BME280;35729;52.090;13.162;2023-04-01T13:04:07;99518.88;;;11.02;100.00
49835;BME280;35729;52.090;13.162;2023-04-01T13:06:52;99516.59;;;10.95;100.00
49835;BME280;35729;52.090;13.162;2023-04-01T13:09:30;99523.91;;;10.86;100.00
49835;BME280;35729;52.090;13.162;2023-04-01T13:15:15;99533.34;;;10.70;100.00
49835;BME280;35729;52.090;13.162;2023-04-01T13:17:53;99532.56;;;10.68;100.00
49835;BME280;35729;52.090;13.162;2023-04-01T13:20:40;99535.25;;;10.66;100.00
49835;BME280;35729;52.090;13.162;2023-04-01T13:23:24;99530.97;;;10.64;100.00
49835;BME280;35729;52.090;13.162;2023-04-01T13:26:07;99540.50;;;10.66;100.00
49835;BME280;35729;52.090;13.162;2023-04-01T13:28:40;99533.50;;;10.67;100.00
49835;BME280;35729;52.090;13.162;2023-04-01T13:34:32;99546.34;;;10.73;100.00
49835;BME280;35729;52.090;13.162;2023-04-01T13:37:12;99548.03;;;10.74;100.00
49835;BME280;35729;52.090;13.162;2023-04-01T13:39:57;99552.44;;;10.73;100.00
49835;BME280;35729;52.090;13.162;2023-04-01T13:42:36;99555.22;;;10.70;100.00
49835;BME280;35729;52.090;13.162;2023-04-01T13:45:13;99555.38;;;10.66;100.00
49835;BME280;35729;52.090;13.162;2023-04-01T13:51:18;99566.00;;;10.63;100.00
49835;BME280;35729;52.090;13.162;2023-04-01T13:54:26;99571.31;;;10.61;100.00
49835;BME280;35729;52.090;13.162;2023-04-01T13:56:59;99574.91;;;10.58;100.00
49835;BME280;35729;52.090;13.162;2023-04-01T13:59:56;99579.56;;;10.52;100.00
49835;BME280;35729;52.090;13.162;2023-04-01T14:02:40;99578.88;;;10.47;100.00
49835;BME280;35729;52.090;13.162;2023-04-01T14:08:17;99585.50;;;10.33;100.00
49835;BME280;35729;52.090;13.162;2023-04-01T14:10:58;99592.84;;;10.23;100.00
49835;BME280;35729;52.090;13.162;2023-04-01T14:13:33;99594.06;;;10.15;99.92
49835;BME280;35729;52.090;13.162;2023-04-01T14:16:22;99596.06;;;10.08;100.00
49835;BME280;35729;52.090;13.162;2023-04-01T14:19:07;99603.41;;;9.98;99.99
49835;BME280;35729;52.090;13.162;2023-04-01T14:21:41;99614.03;;;9.95;100.00
49835;BME280;35729;52.090;13.162;2023-04-01T14:24:36;99616.81;;;9.90;100.00
49835;BME280;35729;52.090;13.162;2023-04-01T14:27:41;99624.88;;;9.84;100.00
49835;BME280;35729;52.090;13.162;2023-04-01T14:30:30;99621.66;;;9.77;100.00
49835;BME280;35729;52.090;13.162;2023-04-01T14:33:15;99623.72;;;9.69;100.00
49835;BME280;35729;52.090;13.162;2023-04-01T14:36:18;99629.94;;;9.65;100.00
49835;BME280;35729;52.090;13.162;2023-04-01T14:38:55;99624.13;;;9.57;100.00
49835;BME280;35729;52.090;13.162;2023-04-01T14:41:38;99636.47;;;9.53;100.00
49835;BME280;35729;52.090;13.162;2023-04-01T14:44:37;99642.88;;;9.44;100.00